Time;durP1;ratioP1;P1;durP2;ratioP2;P2;SDS_P1;SDS_P2;PMS_P1;PMS_P2;Temp;Humidity;BMP_temperature;BMP_pressure;BME280_temperature;BME280_humidity;BME280_pressure;Samples;Min_cycle;Max_cycle;Signal;HPM_P1;HPM_P2
2021/11/03 00:00:11;;;;;;;;;;;;;;;;;;6101822;23;19949;-94
2021/11/03 00:02:42;;;;;;;;;;;;;;;;;;6103282;23;19948;-93
2021/11/03 00:05:11;;;;;;;;;;;;;;;;;;6100861;23;19948;-95
2021/11/03 00:07:40;;;;;;;;;;;;;;;;;;6100641;23;19957;-94
2021/11/03 00:10:09;;;;;;;;;;;;;;;;;;6102121;23;19909;-95
2021/11/03 00:12:38;;;;;;;;;;;;;;;;;;6102075;23;19953;-95
2021/11/03 00:15:08;;;;;;;;;;;;;;;;;;6101585;23;19965;-95
2021/11/03 00:17:38;;;;;;;;;;;;;;;;;;6102508;23;19949;-95
2021/11/03 00:20:07;;;;;;;;;;;;;;;;;;6099534;23;19952;-94
2021/11/03 00:22:36;;;;;;;;;;;;;;;;;;6100329;23;19949;-95
2021/11/03 00:25:06;;;;;;;;;;;;;;;;;;6123786;23;19945;-96
2021/11/03 00:27:35;;;;;;;;;;;;;;;;;;6125739;23;19964;-95
2021/11/03 00:30:04;;;;;;;;;;;;;;;;;;6123462;23;19911;-95
2021/11/03 00:32:32;;;;;;;;;;;;;;;;;;6126131;23;19953;-94
2021/11/03 00:35:03;;;;;;;;;;;;;;;;;;6125970;23;19956;-94
2021/11/03 00:37:32;;;;;;;;;;;;;;;;;;6126801;23;19948;-95
2021/11/03 00:40:01;;;;;;;;;;;;;;;;;;6125267;23;19948;-94
2021/11/03 00:42:30;;;;;;;;;;;;;;;;;;6126592;23;19949;-95
2021/11/03 00:44:59;;;;;;;;;;;;;;;;;;6125915;23;19958;-93
2021/11/03 00:47:31;;;;;;;;;;;;;;;;;;6125033;23;19957;-96
2021/11/03 00:50:03;;;;;;;;;;;;;;;;;;6124979;23;19989;-93
2021/11/03 00:52:32;;;;;;;;;;;;;;;;;;6121798;23;19909;-94
2021/11/03 00:55:00;;;;;;;;;;;;;;;;;;6123000;23;20209;-96
2021/11/03 00:57:30;;;;;;;;;;;;;;;;;;6124981;23;20010;-96
2021/11/03 01:00:00;;;;;;;;;;;;;;;;;;6123687;23;20036;-93
2021/11/03 01:02:30;;;;;;;;;;;;;;;;;;6123504;23;19949;-94
2021/11/03 01:04:59;;;;;;;;;;;;;;;;;;6122345;23;19957;-95
2021/11/03 01:07:30;;;;;;;;;;;;;;;;;;6123247;23;19949;-94
2021/11/03 01:09:58;;;;;;;;;;;;;;;;;;6121361;23;19909;-95
2021/11/03 01:12:27;;;;;;;;;;;;;;;;;;6120727;23;19968;-96
2021/11/03 01:14:56;;;;;;;;;;;;;;;;;;6122410;23;19957;-95
2021/11/03 01:17:25;;;;;;;;;;;;;;;;;;6122962;23;19956;-94
2021/11/03 01:19:54;;;;;;;;;;;;;;;;;;6124203;23;19953;-95
2021/11/03 01:22:23;;;;;;;;;;;;;;;;;;6125916;23;19961;-96
2021/11/03 01:24:54;;;;;;;;;;;;;;;;;;6124271;23;19945;-95
2021/11/03 01:27:23;;;;;;;;;;;;;;;;;;6123396;23;19944;-96
2021/11/03 01:29:52;;;;;;;;;;;;;;;;;;6123825;23;19912;-96
2021/11/03 01:32:21;;;;;;;;;;;;;;;;;;6123965;23;19953;-94
2021/11/03 01:34:49;;;;;;;;;;;;;;;;;;6146706;23;19909;-95
2021/11/03 01:37:18;;;;;;;;;;;;;;;;;;6121309;23;19905;-94
2021/11/03 01:39:46;;;;;;;;;;;;;;;;;;6122973;23;19965;-96
2021/11/03 01:42:16;;;;;;;;;;;;;;;;;;6120818;23;20143;-94
2021/11/03 01:44:45;;;;;;;;;;;;;;;;;;6123041;23;19945;-93
2021/11/03 01:47:33;;;;;;;;;;;;;;;;;;6123118;23;19972;-95
2021/11/03 01:50:02;;;;;;;;;;;;;;;;;;6124205;23;19913;-95
2021/11/03 01:52:31;;;;;;;;;;;;;;;;;;6126171;23;19973;-94
2021/11/03 01:54:59;;;;;;;;;;;;;;;;;;6125767;23;19945;-94
2021/11/03 01:57:33;;;;;;;;;;;;;;;;;;6125825;23;19957;-94
2021/11/03 02:00:06;;;;;;;;;;;;;;;;;;6125456;23;19949;-93
2021/11/03 02:02:48;;;;;;;;;;;;;;;;;;6125072;23;19949;-95
2021/11/03 02:05:19;;;;;;;;;;;;;;;;;;6125028;23;19949;-95
2021/11/03 02:07:49;;;;;;;;;;;;;;;;;;6126596;23;19969;-95
2021/11/03 02:10:19;;;;;;;;;;;;;;;;;;6126634;23;20167;-95
2021/11/03 02:12:52;;;;;;;;;;;;;;;;;;6126559;23;19965;-95
2021/11/03 02:15:21;;;;;;;;;;;;;;;;;;6126349;23;19949;-94
2021/11/03 02:17:52;;;;;;;;;;;;;;;;;;6125709;23;19953;-93
2021/11/03 02:20:22;;;;;;;;;;;;;;;;;;6124921;23;19948;-94
2021/11/03 02:22:55;;;;;;;;;;;;;;;;;;6124031;23;19949;-93
2021/11/03 02:25:26;;;;;;;;;;;;;;;;;;6101105;23;19945;-94
2021/11/03 02:27:56;;;;;;;;;;;;;;;;;;6101007;23;19956;-95
2021/11/03 02:30:26;;;;;;;;;;;;;;;;;;6124971;23;19948;-95
2021/11/03 02:32:56;;;;;;;;;;;;;;;;;;6098972;23;19953;-95
2021/11/03 02:35:25;;;;;;;;;;;;;;;;;;6101473;23;19953;-94
2021/11/03 02:37:54;;;;;;;;;;;;;;;;;;6102624;23;19978;-96
2021/11/03 02:40:36;;;;;;;;;;;;;;;;;;6103069;23;19956;-94
2021/11/03 02:43:07;;;;;;;;;;;;;;;;;;6103799;23;19966;-95
2021/11/03 02:45:38;;;;;;;;;;;;;;;;;;6103493;23;19950;-94
2021/11/03 02:48:07;;;;;;;;;;;;;;;;;;6102129;23;19948;-94
2021/11/03 02:50:36;;;;;;;;;;;;;;;;;;6100715;23;19920;-95
2021/11/03 02:53:06;;;;;;;;;;;;;;;;;;6103349;23;19953;-94
2021/11/03 02:55:36;;;;;;;;;;;;;;;;;;6102294;23;19977;-94
2021/11/03 02:58:05;;;;;;;;;;;;;;;;;;6102213;23;19944;-94
2021/11/03 03:00:34;;;;;;;;;;;;;;;;;;6102480;23;19948;-94
2021/11/03 03:03:03;;;;;;;;;;;;;;;;;;6102472;23;19944;-95
2021/11/03 03:05:31;;;;;;;;;;;;;;;;;;6102538;23;19950;-94
2021/11/03 03:08:00;;;;;;;;;;;;;;;;;;6102804;23;19948;-94
2021/11/03 03:10:29;;;;;;;;;;;;;;;;;;6102213;23;19919;-96
2021/11/03 03:13:01;;;;;;;;;;;;;;;;;;6103323;23;19956;-94
2021/11/03 03:15:33;;;;;;;;;;;;;;;;;;6105173;23;19949;-95
2021/11/03 03:18:04;;;;;;;;;;;;;;;;;;6105630;23;19952;-96
2021/11/03 03:20:35;;;;;;;;;;;;;;;;;;6105005;23;19952;-93
2021/11/03 03:23:06;;;;;;;;;;;;;;;;;;6103871;23;19945;-94
2021/11/03 03:25:38;;;;;;;;;;;;;;;;;;6104222;23;19949;-92
2021/11/03 03:28:14;;;;;;;;;;;;;;;;;;6103550;23;19949;-94
2021/11/03 03:30:48;;;;;;;;;;;;;;;;;;6102976;23;19917;-94
2021/11/03 03:33:17;;;;;;;;;;;;;;;;;;6101887;23;19953;-94
2021/11/03 03:35:48;;;;;;;;;;;;;;;;;;6103547;23;19945;-95
2021/11/03 03:38:18;;;;;;;;;;;;;;;;;;6105251;23;19956;-96
2021/11/03 03:40:50;;;;;;;;;;;;;;;;;;6105131;23;19949;-95
2021/11/03 03:43:23;;;;;;;;;;;;;;;;;;6104926;23;19976;-93
2021/11/03 03:45:56;;;;;;;;;;;;;;;;;;6104829;23;19948;-96
2021/11/03 03:48:27;;;;;;;;;;;;;;;;;;6105249;23;20159;-94
2021/11/03 03:51:00;;;;;;;;;;;;;;;;;;6105070;23;20106;-96
2021/11/03 03:53:32;;;;;;;;;;;;;;;;;;6105155;23;19961;-96
2021/11/03 03:56:13;;;;;;;;;;;;;;;;;;6104165;23;19953;-94
2021/11/03 03:58:44;;;;;;;;;;;;;;;;;;6104211;23;19957;-96
2021/11/03 04:01:14;;;;;;;;;;;;;;;;;;6103171;23;19948;-96
2021/11/03 04:03:44;;;;;;;;;;;;;;;;;;6103075;23;19949;-95
2021/11/03 04:06:14;;;;;;;;;;;;;;;;;;6100453;23;19965;-95
2021/11/03 04:08:44;;;;;;;;;;;;;;;;;;6101276;23;19944;-96
2021/11/03 04:11:14;;;;;;;;;;;;;;;;;;6100941;23;19972;-96
2021/11/03 04:13:46;;;;;;;;;;;;;;;;;;6102176;23;19948;-96
2021/11/03 04:16:16;;;;;;;;;;;;;;;;;;6102073;23;19961;-95
2021/11/03 04:18:46;;;;;;;;;;;;;;;;;;6101420;23;19968;-96
2021/11/03 04:21:16;;;;;;;;;;;;;;;;;;6101655;23;19953;-95
2021/11/03 04:23:46;;;;;;;;;;;;;;;;;;6107671;23;19939;-95
2021/11/03 04:26:19;;;;;;;;;;;;;;;;;;6126379;23;19944;-95
2021/11/03 04:28:51;;;;;;;;;;;;;;;;;;6125914;23;19953;-94
2021/11/03 04:31:21;;;;;;;;;;;;;;;;;;6127026;23;19977;-96
2021/11/03 04:33:54;;;;;;;;;;;;;;;;;;6126676;23;19945;-95
2021/11/03 04:36:27;;;;;;;;;;;;;;;;;;6126474;23;19948;-96
2021/11/03 04:38:58;;;;;;;;;;;;;;;;;;6123897;23;19949;-96
2021/11/03 04:41:28;;;;;;;;;;;;;;;;;;6125866;23;19948;-96
2021/11/03 04:43:58;;;;;;;;;;;;;;;;;;6124704;23;19953;-95
2021/11/03 04:46:27;;;;;;;;;;;;;;;;;;6124963;23;20120;-95
2021/11/03 04:48:58;;;;;;;;;;;;;;;;;;6126524;23;19969;-96
2021/11/03 04:51:29;;;;;;;;;;;;;;;;;;6126907;23;19948;-95
2021/11/03 04:53:59;;;;;;;;;;;;;;;;;;6123246;23;19948;-95
2021/11/03 04:56:31;;;;;;;;;;;;;;;;;;6124134;23;19948;-94
2021/11/03 04:59:01;;;;;;;;;;;;;;;;;;6123833;23;19953;-93
2021/11/03 05:01:30;;;;;;;;;;;;;;;;;;6125941;23;19945;-93
2021/11/03 05:04:00;;;;;;;;;;;;;;;;;;6123144;23;19949;-94
2021/11/03 05:06:33;;;;;;;;;;;;;;;;;;6122504;23;19957;-95
2021/11/03 05:09:05;;;;;;;;;;;;;;;;;;6125088;23;19956;-96
2021/11/03 05:11:34;;;;;;;;;;;;;;;;;;6126129;23;19949;-96
2021/11/03 05:14:06;;;;;;;;;;;;;;;;;;6126888;23;19961;-95
2021/11/03 05:16:39;;;;;;;;;;;;;;;;;;6126089;23;19945;-96
2021/11/03 05:19:08;;;;;;;;;;;;;;;;;;6149786;23;19948;-93
2021/11/03 05:21:42;;;;;;;;;;;;;;;;;;6124146;23;19952;-94
2021/11/03 05:24:12;;;;;;;;;;;;;;;;;;6123966;23;19970;-94
2021/11/03 05:26:40;;;;;;;;;;;;;;;;;;6125859;23;19949;-96
2021/11/03 05:29:14;;;;;;;;;;;;;;;;;;6124705;23;19957;-95
2021/11/03 05:31:43;;;;;;;;;;;;;;;;;;6126145;23;19957;-94
2021/11/03 05:40:11;;;;;;;;;;;;;;;;;;6179590;23;19948;-95
2021/11/03 05:42:40;;;;;;;;;;;;;;;;;;6132583;23;19948;-93
2021/11/03 05:45:11;;;;;;;;;;;;;;;;;;6131588;23;19952;-96
2021/11/03 05:47:40;;;;;;;;;;;;;;;;;;6131870;23;19949;-93
2021/11/03 05:50:09;;;;;;;;;;;;;;;;;;6131897;23;19944;-96
2021/11/03 05:52:38;;;;;;;;;;;;;;;;;;6131074;23;19905;-95
2021/11/03 05:55:08;;;;;;;;;;;;;;;;;;6130300;23;19996;-94
2021/11/03 05:57:38;;;;;;;;;;;;;;;;;;6130500;23;19973;-95
2021/11/03 06:00:14;;;;;;;;;;;;;;;;;;6131025;23;19952;-93
2021/11/03 06:02:44;;;;;;;;;;;;;;;;;;6131944;23;19948;-95
2021/11/03 06:05:15;;;;;;;;;;;;;;;;;;6130561;23;19976;-94
2021/11/03 06:07:49;;;;;;;;;;;;;;;;;;6130304;23;19948;-94
2021/11/03 06:10:21;;;;;;;;;;;;;;;;;;6131365;23;19956;-95
2021/11/03 06:12:51;;;;;;;;;;;;;;;;;;6133567;23;19931;-96
2021/11/03 06:39:44;;;;;;;;;;;;;;;;;;6209316;23;19952;-96
